Terminal Aerodrome Forecast
Issued by NWS Sioux Falls, SD

Home | Current Version | Previous Version | Text Only | Print | Product List | Glossary On
Versions: 1 2 3 4 5 6 7 8 9 10 11 12 13 14
000
FTUS43 KFSD 232320
TAFFSD
TAF
KFSD 232320Z 2400/2424 15011G19KT P6SM SCT025 OVC035
     FM240400 12009KT P6SM OVC025
     FM240700 11008KT 6SM -SHRA BR OVC015
     FM241100 10011KT 4SM SHRA BR OVC009
     FM241600 12011KT P6SM OVC015
     FM242100 10006KT P6SM OVC035=

USA.gov is the U.S. government's official web portal to all federal, state and local government web resources and services.